Sierra Queen — D5IV7 — position and weather

sailwx.info

Track history (hours):
 
Tides and Currents Weather Stations Pressure Air Temp Water Temp Dewpoint Dewpoint Depression Visibility Wind Speed Wind Dir Waves Ship Positions

Sierra Queen

Last reported at 2018-Apr-24 12:36 UTC. Time now 2018-Apr-24 18:33 UTC.
Position N 38°55' W 075°06'.

Length 134 m; draft 5.8 m.

Type: Cargo ship. MMSI: 636017004.

Date/timePositionNaut miles runAvg speedWind from/ knotsBaromVisibWave heightAir tempDewpointWater temp
2018-Apr-24 12:36N 38°55' W 075°06'14 1.6
2018-Apr-24 04:01N 38°43' W 074°58'1410.2
2018-Apr-24 02:37N 38°55' W 075°06'217.7
2018-Apr-24 02:30N 38°57' W 075°07'918.1
2018-Apr-24 02:00N 39°05' W 075°12'918.5
2018-Apr-24 01:30N 39°13' W 075°18'815.5
2018-Apr-24 01:00N 39°19' W 075°24'816.2
2018-Apr-24 00:30N 39°25' W 075°31'715.0
2018-Apr-24 00:01N 39°33' W 075°33'611.6
2018-Apr-23 23:30N 39°38' W 075°34'611.8
2018-Apr-23 23:00N 39°44' W 075°30'611.8
2018-Apr-23 22:30N 39°48' W 075°25'510.0
2018-Apr-23 22:00N 39°51' W 075°20'510.1
2018-Apr-23 21:30N 39°52' W 075°13'4 8.7
2018-Apr-23 21:00N 39°54' W 075°08'1 1.9
2018-Apr-23 20:30N 39°54' W 075°08'0 0.0
2018-Apr-23 20:00N 39°54' W 075°08'0 0.0
2018-Apr-23 19:30N 39°54' W 075°08'0 0.0
2018-Apr-23 19:00N 39°54' W 075°08'0 0.0
2018-Apr-23 18:30N 39°54' W 075°08'0 0.0
2018-Apr-23 18:00N 39°54' W 075°08'0 0.0
2018-Apr-23 17:30N 39°54' W 075°08'0 0.0
2018-Apr-23 17:00N 39°54' W 075°08'0 0.0
2018-Apr-23 16:30N 39°54' W 075°08'0 0.0
2018-Apr-23 16:00N 39°54' W 075°08'0 0.0
2018-Apr-23 15:30N 39°54' W 075°08'0 0.0
2018-Apr-23 15:00N 39°54' W 075°08'0 0.0
2018-Apr-23 14:30N 39°54' W 075°08'0 0.0
2018-Apr-23 14:00N 39°54' W 075°08'0 0.0
2018-Apr-23 13:30N 39°54' W 075°08'0 0.0
2018-Apr-23 13:00N 39°54' W 075°08'0 0.0
2018-Apr-23 12:30N 39°54' W 075°08'0 0.0
2018-Apr-23 12:00N 39°54' W 075°08'0 0.0
2018-Apr-23 11:30N 39°54' W 075°08'0 0.0
2018-Apr-23 11:00N 39°54' W 075°08'0 0.0
2018-Apr-23 10:30N 39°54' W 075°08'0 0.0
2018-Apr-23 10:00N 39°54' W 075°08'0 0.0
2018-Apr-23 09:30N 39°54' W 075°08'0 0.0
2018-Apr-23 09:00N 39°54' W 075°08'0 0.0
2018-Apr-23 08:30N 39°54' W 075°08'0 0.0
2018-Apr-23 08:00N 39°54' W 075°08'0 0.0
2018-Apr-23 07:30N 39°54' W 075°08'0 0.0
2018-Apr-23 07:00N 39°54' W 075°08'0 0.0
2018-Apr-23 06:30N 39°54' W 075°08'0 0.0
2018-Apr-23 06:00N 39°54' W 075°08'0 0.0
2018-Apr-23 05:30N 39°54' W 075°08'0 0.0
2018-Apr-23 05:00N 39°54' W 075°08'0 0.0
2018-Apr-23 04:30N 39°54' W 075°08'0 0.0
2018-Apr-23 04:00N 39°54' W 075°08'0 0.0
2018-Apr-23 03:30N 39°54' W 075°08'0 0.0
2018-Apr-23 03:00N 39°54' W 075°08'0 0.0
2018-Apr-23 02:30N 39°54' W 075°08'0 0.0
2018-Apr-23 02:00N 39°54' W 075°08'0 0.0
2018-Apr-23 01:30N 39°54' W 075°08'0 0.0
2018-Apr-23 01:00N 39°54' W 075°08'0 0.0
2018-Apr-23 00:30N 39°54' W 075°08'0 0.0
2018-Apr-22 23:12N 39°54' W 075°08'0 0.0
2018-Apr-22 22:46N 39°54' W 075°08'0 0.0
2018-Apr-22 22:28N 39°54' W 075°08'0 0.2
2018-Apr-22 21:59N 39°54' W 075°08'3 5.7
2018-Apr-22 21:30N 39°53' W 075°11'5 9.7
2018-Apr-22 21:00N 39°51' W 075°16'713.2
2018-Apr-22 20:29N 39°48' W 075°25'613.2
2018-Apr-22 20:00N 39°44' W 075°30'814.9
2018-Apr-22 19:27N 39°36' W 075°34'612.9
2018-Apr-22 19:00N 39°30' W 075°33'815.6
2018-Apr-22 18:30N 39°23' W 075°29'816.5
2018-Apr-22 18:00N 39°17' W 075°22'917.0
2018-Apr-22 17:28N 39°10' W 075°15'917.7
2018-Apr-22 16:59N 39°02' W 075°10'817.4
2018-Apr-22 16:30N 38°54' W 075°05'713.1
2018-Apr-22 16:00N 38°48' W 075°03'5 9.2
2018-Apr-22 15:29N 38°45' W 074°58'78016.2
2018-Apr-20 15:25N 26°19' W 079°28'818.6
2018-Apr-20 15:00N 26°12' W 079°30'1418.8
2018-Apr-20 14:14N 25°58' W 079°32'418.6
2018-Apr-20 14:00N 25°53' W 079°33'918.9
2018-Apr-20 13:30N 25°44' W 079°34'1019.3
2018-Apr-20 13:00N 25°34' W 079°35'  
Track history (hours):
 
Tides and Currents Weather Stations Pressure Air Temp Water Temp Dewpoint Dewpoint Depression Visibility Wind Speed Wind Dir Waves Ship Positions

Sierra Queen

Last reported at 2018-Apr-24 12:36 UTC. Time now 2018-Apr-24 18:33 UTC.
Position N 38°55' W 075°06'.

Length 134 m; draft 5.8 m.

Type: Cargo ship. MMSI: 636017004.

Date/timePositionNaut miles runAvg speedWind from/ knotsBaromVisibWave heightAir tempDewpointWater temp
2018-Apr-24 12:36N 38°55' W 075°06'14 1.6
2018-Apr-24 04:01N 38°43' W 074°58'1410.2
2018-Apr-24 02:37N 38°55' W 075°06'217.7
2018-Apr-24 02:30N 38°57' W 075°07'918.1
2018-Apr-24 02:00N 39°05' W 075°12'918.5
2018-Apr-24 01:30N 39°13' W 075°18'815.5
2018-Apr-24 01:00N 39°19' W 075°24'816.2
2018-Apr-24 00:30N 39°25' W 075°31'715.0
2018-Apr-24 00:01N 39°33' W 075°33'611.6
2018-Apr-23 23:30N 39°38' W 075°34'611.8
2018-Apr-23 23:00N 39°44' W 075°30'611.8
2018-Apr-23 22:30N 39°48' W 075°25'510.0
2018-Apr-23 22:00N 39°51' W 075°20'510.1
2018-Apr-23 21:30N 39°52' W 075°13'4 8.7
2018-Apr-23 21:00N 39°54' W 075°08'1 1.9
2018-Apr-23 20:30N 39°54' W 075°08'0 0.0
2018-Apr-23 20:00N 39°54' W 075°08'0 0.0
2018-Apr-23 19:30N 39°54' W 075°08'0 0.0
2018-Apr-23 19:00N 39°54' W 075°08'0 0.0
2018-Apr-23 18:30N 39°54' W 075°08'0 0.0
2018-Apr-23 18:00N 39°54' W 075°08'0 0.0
2018-Apr-23 17:30N 39°54' W 075°08'0 0.0
2018-Apr-23 17:00N 39°54' W 075°08'0 0.0
2018-Apr-23 16:30N 39°54' W 075°08'0 0.0
2018-Apr-23 16:00N 39°54' W 075°08'0 0.0
2018-Apr-23 15:30N 39°54' W 075°08'0 0.0
2018-Apr-23 15:00N 39°54' W 075°08'0 0.0
2018-Apr-23 14:30N 39°54' W 075°08'0 0.0
2018-Apr-23 14:00N 39°54' W 075°08'0 0.0
2018-Apr-23 13:30N 39°54' W 075°08'0 0.0
2018-Apr-23 13:00N 39°54' W 075°08'0 0.0
2018-Apr-23 12:30N 39°54' W 075°08'0 0.0
2018-Apr-23 12:00N 39°54' W 075°08'0 0.0
2018-Apr-23 11:30N 39°54' W 075°08'0 0.0
2018-Apr-23 11:00N 39°54' W 075°08'0 0.0
2018-Apr-23 10:30N 39°54' W 075°08'0 0.0
2018-Apr-23 10:00N 39°54' W 075°08'0 0.0
2018-Apr-23 09:30N 39°54' W 075°08'0 0.0
2018-Apr-23 09:00N 39°54' W 075°08'0 0.0
2018-Apr-23 08:30N 39°54' W 075°08'0 0.0
2018-Apr-23 08:00N 39°54' W 075°08'0 0.0
2018-Apr-23 07:30N 39°54' W 075°08'0 0.0
2018-Apr-23 07:00N 39°54' W 075°08'0 0.0
2018-Apr-23 06:30N 39°54' W 075°08'0 0.0
2018-Apr-23 06:00N 39°54' W 075°08'0 0.0
2018-Apr-23 05:30N 39°54' W 075°08'0 0.0
2018-Apr-23 05:00N 39°54' W 075°08'0 0.0
2018-Apr-23 04:30N 39°54' W 075°08'0 0.0
2018-Apr-23 04:00N 39°54' W 075°08'0 0.0
2018-Apr-23 03:30N 39°54' W 075°08'0 0.0
2018-Apr-23 03:00N 39°54' W 075°08'0 0.0
2018-Apr-23 02:30N 39°54' W 075°08'0 0.0
2018-Apr-23 02:00N 39°54' W 075°08'0 0.0
2018-Apr-23 01:30N 39°54' W 075°08'0 0.0
2018-Apr-23 01:00N 39°54' W 075°08'0 0.0
2018-Apr-23 00:30N 39°54' W 075°08'0 0.0
2018-Apr-22 23:12N 39°54' W 075°08'0 0.0
2018-Apr-22 22:46N 39°54' W 075°08'0 0.0
2018-Apr-22 22:28N 39°54' W 075°08'0 0.2
2018-Apr-22 21:59N 39°54' W 075°08'3 5.7
2018-Apr-22 21:30N 39°53' W 075°11'5 9.7
2018-Apr-22 21:00N 39°51' W 075°16'713.2
2018-Apr-22 20:29N 39°48' W 075°25'613.2
2018-Apr-22 20:00N 39°44' W 075°30'814.9
2018-Apr-22 19:27N 39°36' W 075°34'612.9
2018-Apr-22 19:00N 39°30' W 075°33'815.6
2018-Apr-22 18:30N 39°23' W 075°29'816.5
2018-Apr-22 18:00N 39°17' W 075°22'917.0
2018-Apr-22 17:28N 39°10' W 075°15'917.7
2018-Apr-22 16:59N 39°02' W 075°10'817.4
2018-Apr-22 16:30N 38°54' W 075°05'713.1
2018-Apr-22 16:00N 38°48' W 075°03'5 9.2
2018-Apr-22 15:29N 38°45' W 074°58'78016.2
2018-Apr-20 15:25N 26°19' W 079°28'818.6
2018-Apr-20 15:00N 26°12' W 079°30'1418.8
2018-Apr-20 14:14N 25°58' W 079°32'418.6
2018-Apr-20 14:00N 25°53' W 079°33'918.9
2018-Apr-20 13:30N 25°44' W 079°34'1019.3
2018-Apr-20 13:00N 25°34' W 079°35'  

Dump ship's entire track history